ANZ172 NFTF-NCRG
Flight info
| Callsign | ANZ172 |
|---|---|
| Flight time | N/A |
| Altitude | 39000 |
| Route | ADNER1P AGEXO B598 GUTMA ANIVA1A |
| Aircraft | A20N/M-SDE2E3FGHIRWXY/LB1 |
Departure
| Time | 2026-04-24 11:00 |
|---|---|
| Airport | Fua'amotu International Airport (NFTF) |
Arrival
| Time | N/A |
|---|---|
| Airport | Rarotonga International Airport (NCRG) |
| Time | Latitude | Longitude | Altitude | Speed | Heading |
|---|---|---|---|---|---|
| 2026-04-24 10:23 | -21.24244 | -175.14139 | 119 ft | 0 kts | 283° |
| 2026-04-24 10:52 | -21.24241 | -175.14154 | 117 ft | 2 kts | 283° |
| 2026-04-24 10:53 | -21.24246 | -175.14170 | 117 ft | 4 kts | 246° |
| 2026-04-24 10:53 | -21.24261 | -175.14209 | 115 ft | 7 kts | 243° |
| 2026-04-24 10:53 | -21.24306 | -175.14254 | 116 ft | 10 kts | 212° |
| 2026-04-24 10:53 | -21.24369 | -175.14295 | 115 ft | 5 kts | 212° |
| 2026-04-24 10:54 | -21.24371 | -175.14296 | 117 ft | 0 kts | 212° |
| 2026-04-24 10:54 | -21.24374 | -175.14299 | 117 ft | 3 kts | 212° |
| 2026-04-24 10:54 | -21.24405 | -175.14320 | 117 ft | 7 kts | 215° |
| 2026-04-24 10:54 | -21.24435 | -175.14372 | 114 ft | 9 kts | 260° |
| 2026-04-24 10:55 | -21.24407 | -175.14443 | 116 ft | 12 kts | 301° |
| 2026-04-24 10:55 | -21.24359 | -175.14528 | 117 ft | 15 kts | 301° |
| 2026-04-24 10:55 | -21.24297 | -175.14634 | 115 ft | 19 kts | 305° |
| 2026-04-24 10:55 | -21.24217 | -175.14761 | 113 ft | 22 kts | 303° |
| 2026-04-24 10:56 | -21.24133 | -175.14909 | 111 ft | 25 kts | 302° |
| 2026-04-24 10:56 | -21.24035 | -175.15074 | 109 ft | 27 kts | 302° |
| 2026-04-24 10:56 | -21.23933 | -175.15251 | 108 ft | 29 kts | 301° |
| 2026-04-24 10:56 | -21.23824 | -175.15438 | 109 ft | 30 kts | 302° |
| 2026-04-24 10:57 | -21.23716 | -175.15623 | 107 ft | 24 kts | 303° |
| 2026-04-24 10:57 | -21.23643 | -175.15749 | 106 ft | 20 kts | 300° |
| 2026-04-24 10:57 | -21.23568 | -175.15877 | 104 ft | 19 kts | 303° |
| 2026-04-24 10:57 | -21.23492 | -175.15964 | 103 ft | 12 kts | 327° |
| 2026-04-24 10:58 | -21.23425 | -175.16014 | 101 ft | 8 kts | 316° |
| 2026-04-24 10:58 | -21.23421 | -175.16061 | 101 ft | 7 kts | 219° |
| 2026-04-24 10:58 | -21.23446 | -175.16076 | 101 ft | 4 kts | 203° |
| 2026-04-24 10:58 | -21.23462 | -175.16063 | 101 ft | 3 kts | 120° |
| 2026-04-24 10:59 | -21.23470 | -175.16046 | 102 ft | 0 kts | 118° |
| 2026-04-24 10:59 | -21.23505 | -175.15980 | 102 ft | 40 kts | 121° |
| 2026-04-24 10:59 | -21.23785 | -175.15503 | 108 ft | 108 kts | 122° |
| 2026-04-24 10:59 | -21.24282 | -175.14648 | 120 ft | 160 kts | 122° |
| 2026-04-24 11:00 | -21.24865 | -175.13644 | 796 ft | 152 kts | 121° |
| 2026-04-24 11:00 | -21.25416 | -175.12712 | 1566 ft | 145 kts | 123° |
| 2026-04-24 11:00 | -21.25982 | -175.11782 | 2084 ft | 158 kts | 124° |
| 2026-04-24 11:00 | -21.26628 | -175.10747 | 2536 ft | 178 kts | 122° |
| 2026-04-24 11:01 | -21.27345 | -175.09558 | 2983 ft | 200 kts | 122° |
| 2026-04-24 11:01 | -21.28136 | -175.08226 | 3418 ft | 224 kts | 121° |
| 2026-04-24 11:01 | -21.29001 | -175.06728 | 3867 ft | 248 kts | 120° |
| 2026-04-24 11:01 | -21.29898 | -175.05124 | 4619 ft | 257 kts | 120° |
| 2026-04-24 11:02 | -21.30843 | -175.03445 | 5508 ft | 263 kts | 121° |
| 2026-04-24 11:02 | -21.31679 | -175.01698 | 6412 ft | 266 kts | 106° |
| 2026-04-24 11:02 | -21.31812 | -174.99722 | 7117 ft | 275 kts | 84° |
| 2026-04-24 11:02 | -21.31500 | -174.97667 | 7826 ft | 283 kts | 80° |
| 2026-04-24 11:03 | -21.31175 | -174.95528 | 8548 ft | 290 kts | 83° |
| 2026-04-24 11:03 | -21.30974 | -174.93379 | 9249 ft | 298 kts | 86° |
| 2026-04-24 11:03 | -21.30871 | -174.91130 | 9966 ft | 305 kts | 89° |
| 2026-04-24 11:03 | -21.30827 | -174.88812 | 10407 ft | 322 kts | 90° |
| 2026-04-24 11:04 | -21.30808 | -174.86328 | 10635 ft | 344 kts | 90° |
| 2026-04-24 11:04 | -21.30794 | -174.83705 | 10998 ft | 357 kts | 90° |
| 2026-04-24 11:04 | -21.30779 | -174.81024 | 11684 ft | 361 kts | 90° |
| 2026-04-24 11:04 | -21.30760 | -174.78320 | 12377 ft | 365 kts | 89° |
| 2026-04-24 11:05 | -21.30739 | -174.75584 | 13045 ft | 370 kts | 89° |
| 2026-04-24 11:05 | -21.30716 | -174.72819 | 13781 ft | 372 kts | 89° |
| 2026-04-24 11:05 | -21.30691 | -174.70034 | 14388 ft | 376 kts | 89° |
| 2026-04-24 11:05 | -21.30666 | -174.67209 | 14958 ft | 381 kts | 89° |
| 2026-04-24 11:06 | -21.30640 | -174.64358 | 15584 ft | 383 kts | 89° |
| 2026-04-24 11:06 | -21.30613 | -174.61491 | 16173 ft | 387 kts | 89° |
| 2026-04-24 11:06 | -21.30586 | -174.58596 | 16764 ft | 390 kts | 89° |
| 2026-04-24 11:06 | -21.30558 | -174.55665 | 17314 ft | 394 kts | 89° |
| 2026-04-24 11:07 | -21.30500 | -174.49744 | 18415 ft | 401 kts | 88° |
| 2026-04-24 11:07 | -21.30470 | -174.46746 | 18903 ft | 404 kts | 88° |
| 2026-04-24 11:07 | -21.30438 | -174.43715 | 19366 ft | 408 kts | 88° |
| 2026-04-24 11:08 | -21.30405 | -174.40669 | 19837 ft | 411 kts | 89° |
| 2026-04-24 11:08 | -21.30372 | -174.37594 | 20308 ft | 414 kts | 89° |
| 2026-04-24 11:08 | -21.30338 | -174.34487 | 20769 ft | 418 kts | 89° |
| 2026-04-24 11:08 | -21.30303 | -174.31366 | 21219 ft | 421 kts | 89° |
| 2026-04-24 11:09 | -21.30267 | -174.28207 | 21671 ft | 425 kts | 89° |
| 2026-04-24 11:09 | -21.30231 | -174.25027 | 22115 ft | 429 kts | 88° |
| 2026-04-24 11:09 | -21.30193 | -174.21808 | 22546 ft | 432 kts | 88° |
| 2026-04-24 11:09 | -21.30154 | -174.18571 | 22971 ft | 436 kts | 88° |
| 2026-04-24 11:10 | -21.30115 | -174.15310 | 23406 ft | 440 kts | 88° |
| 2026-04-24 11:10 | -21.30074 | -174.12021 | 23789 ft | 443 kts | 88° |
| 2026-04-24 11:10 | -21.30033 | -174.08704 | 24171 ft | 446 kts | 88° |
| 2026-04-24 11:10 | -21.29991 | -174.05364 | 24540 ft | 449 kts | 88° |
| 2026-04-24 11:11 | -21.29948 | -174.02018 | 24901 ft | 451 kts | 88° |
| 2026-04-24 11:11 | -21.29903 | -173.98638 | 25251 ft | 454 kts | 88° |
| 2026-04-24 11:11 | -21.29858 | -173.95248 | 25607 ft | 457 kts | 88° |
| 2026-04-24 11:11 | -21.29812 | -173.91828 | 25947 ft | 460 kts | 88° |
| 2026-04-24 11:12 | -21.29765 | -173.88391 | 26283 ft | 462 kts | 88° |
| 2026-04-24 11:12 | -21.29717 | -173.84931 | 26617 ft | 465 kts | 88° |
| 2026-04-24 11:12 | -21.29668 | -173.81455 | 26945 ft | 468 kts | 88° |
| 2026-04-24 11:12 | -21.29648 | -173.77960 | 27260 ft | 470 kts | 90° |
| 2026-04-24 11:13 | -21.29758 | -173.74449 | 27579 ft | 473 kts | 92° |
| 2026-04-24 11:13 | -21.29912 | -173.70964 | 27885 ft | 476 kts | 92° |
| 2026-04-24 11:13 | -21.30067 | -173.67411 | 28190 ft | 478 kts | 92° |
| 2026-04-24 11:13 | -21.30211 | -173.63792 | 28487 ft | 481 kts | 91° |
| 2026-04-24 11:14 | -21.30341 | -173.60207 | 28783 ft | 483 kts | 91° |
| 2026-04-24 11:14 | -21.30464 | -173.56643 | 29065 ft | 485 kts | 91° |
| 2026-04-24 11:14 | -21.30586 | -173.52971 | 29352 ft | 488 kts | 91° |
| 2026-04-24 11:14 | -21.30704 | -173.49375 | 29626 ft | 490 kts | 91° |
| 2026-04-24 11:15 | -21.30824 | -173.45714 | 29891 ft | 493 kts | 91° |
| 2026-04-24 11:15 | -21.30945 | -173.41985 | 30172 ft | 495 kts | 91° |
| 2026-04-24 11:15 | -21.31063 | -173.38342 | 30421 ft | 497 kts | 91° |
| 2026-04-24 11:15 | -21.31182 | -173.34637 | 30671 ft | 499 kts | 91° |
| 2026-04-24 11:16 | -21.31302 | -173.30856 | 30929 ft | 501 kts | 91° |
| 2026-04-24 11:16 | -21.31419 | -173.27161 | 31192 ft | 503 kts | 91° |
| 2026-04-24 11:16 | -21.31537 | -173.23418 | 31510 ft | 503 kts | 91° |
| 2026-04-24 11:16 | -21.31654 | -173.19669 | 31858 ft | 503 kts | 91° |
| 2026-04-24 11:17 | -21.31770 | -173.15929 | 32191 ft | 502 kts | 91° |
| 2026-04-24 11:17 | -21.31885 | -173.12189 | 32523 ft | 502 kts | 91° |
| 2026-04-24 11:17 | -21.31999 | -173.08445 | 32842 ft | 502 kts | 92° |
| 2026-04-24 11:17 | -21.32112 | -173.04706 | 33150 ft | 502 kts | 92° |
| 2026-04-24 11:18 | -21.32225 | -173.00957 | 33468 ft | 502 kts | 92° |
| 2026-04-24 11:18 | -21.32337 | -172.97223 | 33762 ft | 502 kts | 92° |
| 2026-04-24 11:18 | -21.32448 | -172.93488 | 34047 ft | 502 kts | 92° |
| 2026-04-24 11:18 | -21.32522 | -172.90961 | 34219 ft | 502 kts | 92° |
| 2026-04-24 11:19 | -21.32632 | -172.87225 | 34482 ft | 501 kts | 92° |
| 2026-04-24 11:19 | -21.32739 | -172.83545 | 34732 ft | 500 kts | 92° |
| 2026-04-24 11:19 | -21.32846 | -172.79809 | 34973 ft | 500 kts | 92° |
| 2026-04-24 11:19 | -21.32953 | -172.76088 | 35219 ft | 500 kts | 92° |
| 2026-04-24 11:20 | -21.33094 | -172.71108 | 35532 ft | 499 kts | 92° |
| 2026-04-24 11:20 | -21.33164 | -172.68644 | 35689 ft | 499 kts | 92° |
| 2026-04-24 11:20 | -21.33268 | -172.64928 | 35931 ft | 499 kts | 92° |
| 2026-04-24 11:20 | -21.33371 | -172.61209 | 36146 ft | 498 kts | 92° |
| 2026-04-24 11:21 | -21.33473 | -172.57506 | 36367 ft | 498 kts | 92° |
| 2026-04-24 11:21 | -21.33575 | -172.53793 | 36583 ft | 497 kts | 92° |
| 2026-04-24 11:21 | -21.33675 | -172.50081 | 36792 ft | 497 kts | 93° |
| 2026-04-24 11:21 | -21.33775 | -172.46378 | 36995 ft | 497 kts | 93° |
| 2026-04-24 11:22 | -21.33874 | -172.42679 | 37186 ft | 496 kts | 93° |
| 2026-04-24 11:22 | -21.33972 | -172.38982 | 37377 ft | 496 kts | 93° |
| 2026-04-24 11:22 | -21.34069 | -172.35284 | 37571 ft | 495 kts | 93° |
| 2026-04-24 11:22 | -21.34165 | -172.31597 | 37769 ft | 495 kts | 93° |
| 2026-04-24 11:23 | -21.34261 | -172.27907 | 37937 ft | 494 kts | 93° |
| 2026-04-24 11:23 | -21.34355 | -172.24220 | 38107 ft | 494 kts | 93° |
| 2026-04-24 11:23 | -21.34449 | -172.20536 | 38272 ft | 494 kts | 93° |
| 2026-04-24 11:23 | -21.34541 | -172.16862 | 38437 ft | 493 kts | 93° |
| 2026-04-24 11:24 | -21.34633 | -172.13190 | 38591 ft | 493 kts | 93° |
| 2026-04-24 11:24 | -21.34724 | -172.09514 | 38737 ft | 492 kts | 93° |
| 2026-04-24 11:24 | -21.34814 | -172.05837 | 38866 ft | 492 kts | 93° |
| 2026-04-24 11:24 | -21.34903 | -172.02181 | 38999 ft | 491 kts | 93° |
| 2026-04-24 11:25 | -21.35079 | -171.94865 | 39048 ft | 490 kts | 93° |
| 2026-04-24 11:25 | -21.35251 | -171.87558 | 39045 ft | 490 kts | 93° |
| 2026-04-24 11:26 | -21.35421 | -171.80255 | 39044 ft | 489 kts | 93° |
| 2026-04-24 11:26 | -21.35583 | -171.73001 | 39047 ft | 489 kts | 93° |
| 2026-04-24 11:27 | -21.35733 | -171.65677 | 39048 ft | 489 kts | 93° |
| 2026-04-24 11:27 | -21.35887 | -171.58381 | 39050 ft | 489 kts | 93° |
| 2026-04-24 11:28 | -21.36042 | -171.51104 | 39050 ft | 488 kts | 93° |
| 2026-04-24 11:28 | -21.36195 | -171.43821 | 39050 ft | 488 kts | 93° |
| 2026-04-24 11:29 | -21.36343 | -171.36543 | 39049 ft | 488 kts | 93° |
| 2026-04-24 11:29 | -21.36487 | -171.29267 | 39046 ft | 488 kts | 93° |
| 2026-04-24 11:30 | -21.36626 | -171.21995 | 39049 ft | 487 kts | 93° |
| 2026-04-24 11:30 | -21.36761 | -171.14775 | 39047 ft | 487 kts | 93° |
| 2026-04-24 11:31 | -21.36894 | -171.07522 | 39047 ft | 487 kts | 93° |
| 2026-04-24 11:31 | -21.37024 | -171.00253 | 39048 ft | 487 kts | 93° |
| 2026-04-24 11:32 | -21.37151 | -170.93001 | 39046 ft | 486 kts | 93° |
| 2026-04-24 11:32 | -21.37274 | -170.85744 | 39045 ft | 486 kts | 93° |
| 2026-04-24 11:33 | -21.37394 | -170.78498 | 39046 ft | 486 kts | 93° |
| 2026-04-24 11:33 | -21.37511 | -170.71255 | 39045 ft | 485 kts | 93° |
| 2026-04-24 11:34 | -21.37624 | -170.64017 | 39044 ft | 485 kts | 93° |
| 2026-04-24 11:34 | -21.37735 | -170.56780 | 39045 ft | 485 kts | 93° |
| 2026-04-24 11:35 | -21.37842 | -170.49546 | 39041 ft | 485 kts | 93° |
| 2026-04-24 11:35 | -21.37946 | -170.42318 | 39042 ft | 485 kts | 93° |
| 2026-04-24 11:36 | -21.38048 | -170.35085 | 39037 ft | 484 kts | 93° |
| 2026-04-24 11:36 | -21.38145 | -170.27912 | 39038 ft | 484 kts | 93° |
| 2026-04-24 11:37 | -21.38239 | -170.20695 | 39039 ft | 484 kts | 93° |
| 2026-04-24 11:37 | -21.38332 | -170.13422 | 39040 ft | 484 kts | 93° |
| 2026-04-24 11:38 | -21.38420 | -170.06248 | 39043 ft | 484 kts | 93° |
| 2026-04-24 11:38 | -21.38505 | -169.99033 | 39044 ft | 484 kts | 93° |
| 2026-04-24 11:39 | -21.38587 | -169.91816 | 39041 ft | 484 kts | 93° |
| 2026-04-24 11:39 | -21.38667 | -169.84597 | 39039 ft | 484 kts | 92° |
| 2026-04-24 11:40 | -21.38743 | -169.77382 | 39042 ft | 484 kts | 92° |
| 2026-04-24 11:40 | -21.38816 | -169.70168 | 39039 ft | 483 kts | 92° |
| 2026-04-24 11:41 | -21.38885 | -169.62955 | 39041 ft | 483 kts | 92° |
| 2026-04-24 11:41 | -21.38952 | -169.55749 | 39040 ft | 483 kts | 92° |
| 2026-04-24 11:42 | -21.39016 | -169.48541 | 39043 ft | 483 kts | 92° |
| 2026-04-24 11:42 | -21.39077 | -169.41325 | 39043 ft | 483 kts | 92° |
| 2026-04-24 11:43 | -21.39134 | -169.34117 | 39043 ft | 483 kts | 92° |
| 2026-04-24 11:43 | -21.39188 | -169.26958 | 39043 ft | 483 kts | 92° |
| 2026-04-24 11:44 | -21.39239 | -169.19746 | 39039 ft | 483 kts | 92° |
| 2026-04-24 11:44 | -21.39288 | -169.12545 | 39037 ft | 483 kts | 92° |
| 2026-04-24 11:45 | -21.39333 | -169.05328 | 39041 ft | 483 kts | 92° |
| 2026-04-24 11:45 | -21.39375 | -168.98118 | 39038 ft | 483 kts | 92° |
| 2026-04-24 11:46 | -21.39414 | -168.90911 | 39038 ft | 483 kts | 92° |
| 2026-04-24 11:46 | -21.39450 | -168.83691 | 39038 ft | 483 kts | 92° |
| 2026-04-24 11:47 | -21.39483 | -168.76485 | 39039 ft | 484 kts | 92° |
| 2026-04-24 11:47 | -21.39513 | -168.69269 | 39033 ft | 484 kts | 92° |
| 2026-04-24 11:48 | -21.39540 | -168.62046 | 39039 ft | 484 kts | 92° |
| 2026-04-24 11:48 | -21.39563 | -168.54831 | 39038 ft | 484 kts | 92° |
| 2026-04-24 11:49 | -21.39584 | -168.47604 | 39038 ft | 484 kts | 92° |
| 2026-04-24 11:49 | -21.39601 | -168.40387 | 39038 ft | 484 kts | 92° |
| 2026-04-24 11:50 | -21.39616 | -168.33157 | 39042 ft | 484 kts | 92° |
| 2026-04-24 11:50 | -21.39627 | -168.25934 | 39039 ft | 484 kts | 92° |
| 2026-04-24 11:51 | -21.39635 | -168.18706 | 39038 ft | 484 kts | 92° |
| 2026-04-24 11:51 | -21.39640 | -168.11490 | 39039 ft | 484 kts | 92° |
| 2026-04-24 11:52 | -21.39642 | -168.04259 | 39039 ft | 484 kts | 92° |
| 2026-04-24 11:52 | -21.39641 | -167.97084 | 39037 ft | 484 kts | 92° |
| 2026-04-24 11:53 | -21.39637 | -167.89865 | 39036 ft | 484 kts | 92° |
| 2026-04-24 11:53 | -21.39630 | -167.82640 | 39039 ft | 484 kts | 92° |
| 2026-04-24 11:54 | -21.39620 | -167.75419 | 39037 ft | 484 kts | 92° |
| 2026-04-24 11:54 | -21.39606 | -167.68195 | 39033 ft | 484 kts | 92° |
| 2026-04-24 11:55 | -21.39590 | -167.60984 | 39031 ft | 484 kts | 92° |
| 2026-04-24 11:55 | -21.39570 | -167.53766 | 39031 ft | 484 kts | 92° |
| 2026-04-24 11:56 | -21.39547 | -167.46543 | 39030 ft | 484 kts | 92° |
| 2026-04-24 11:56 | -21.39522 | -167.39331 | 39029 ft | 484 kts | 92° |
| 2026-04-24 11:57 | -21.39493 | -167.32108 | 39029 ft | 484 kts | 92° |
| 2026-04-24 11:57 | -21.39461 | -167.24892 | 39030 ft | 484 kts | 92° |
| 2026-04-24 11:58 | -21.39426 | -167.17673 | 39032 ft | 484 kts | 92° |
| 2026-04-24 11:58 | -21.39388 | -167.10454 | 39034 ft | 484 kts | 92° |
| 2026-04-24 11:59 | -21.39346 | -167.03230 | 39031 ft | 484 kts | 92° |
| 2026-04-24 11:59 | -21.39302 | -166.96016 | 39032 ft | 484 kts | 92° |
| 2026-04-24 12:00 | -21.39255 | -166.88840 | 39030 ft | 484 kts | 92° |
| 2026-04-24 12:00 | -21.39204 | -166.81579 | 39032 ft | 484 kts | 92° |
| 2026-04-24 12:01 | -21.39151 | -166.74404 | 39032 ft | 484 kts | 92° |
| 2026-04-24 12:01 | -21.39094 | -166.67191 | 39030 ft | 484 kts | 92° |
| 2026-04-24 12:02 | -21.39035 | -166.59965 | 39031 ft | 484 kts | 92° |
| 2026-04-24 12:02 | -21.38972 | -166.52751 | 39029 ft | 484 kts | 92° |
| 2026-04-24 12:03 | -21.38906 | -166.45535 | 39033 ft | 484 kts | 92° |
| 2026-04-24 12:03 | -21.38837 | -166.38319 | 39030 ft | 484 kts | 92° |
| 2026-04-24 12:04 | -21.38765 | -166.31097 | 39027 ft | 483 kts | 92° |
| 2026-04-24 12:04 | -21.38690 | -166.23887 | 39025 ft | 483 kts | 92° |
| 2026-04-24 12:05 | -21.38612 | -166.16683 | 39023 ft | 483 kts | 92° |
| 2026-04-24 12:05 | -21.38531 | -166.09470 | 39024 ft | 483 kts | 92° |
| 2026-04-24 12:06 | -21.38446 | -166.02257 | 39023 ft | 483 kts | 92° |
| 2026-04-24 12:06 | -21.38359 | -165.95092 | 39023 ft | 483 kts | 92° |
| 2026-04-24 12:07 | -21.38284 | -165.89047 | 39022 ft | 483 kts | 92° |
| 2026-04-24 12:07 | -21.38175 | -165.80666 | 39018 ft | 483 kts | 92° |
| 2026-04-24 12:08 | -21.38079 | -165.73455 | 39019 ft | 483 kts | 92° |
| 2026-04-24 12:08 | -21.37995 | -165.67416 | 39019 ft | 484 kts | 92° |
| 2026-04-24 12:09 | -21.37893 | -165.60246 | 39020 ft | 484 kts | 91° |
| 2026-04-24 12:09 | -21.37788 | -165.53031 | 39015 ft | 484 kts | 91° |
| 2026-04-24 12:10 | -21.37679 | -165.45818 | 39017 ft | 484 kts | 91° |
| 2026-04-24 12:11 | -21.37511 | -165.34978 | 39016 ft | 484 kts | 91° |
| 2026-04-24 12:11 | -21.37395 | -165.27753 | 39020 ft | 484 kts | 91° |
| 2026-04-24 12:12 | -21.37277 | -165.20526 | 39020 ft | 485 kts | 91° |
| 2026-04-24 12:12 | -21.37158 | -165.13297 | 39022 ft | 485 kts | 91° |
| 2026-04-24 12:13 | -21.37035 | -165.06068 | 39020 ft | 485 kts | 91° |
| 2026-04-24 12:13 | -21.36910 | -164.98833 | 39021 ft | 485 kts | 91° |
| 2026-04-24 12:14 | -21.36812 | -164.91605 | 39021 ft | 485 kts | 92° |
| 2026-04-24 12:14 | -21.36730 | -164.84368 | 39021 ft | 485 kts | 92° |
| 2026-04-24 12:15 | -21.36645 | -164.77136 | 39020 ft | 485 kts | 92° |
| 2026-04-24 12:15 | -21.36554 | -164.69895 | 39021 ft | 485 kts | 92° |
| 2026-04-24 12:16 | -21.36459 | -164.62661 | 39024 ft | 485 kts | 92° |
| 2026-04-24 12:16 | -21.36360 | -164.55425 | 39019 ft | 485 kts | 92° |
| 2026-04-24 12:17 | -21.36258 | -164.48190 | 39019 ft | 485 kts | 92° |
| 2026-04-24 12:17 | -21.36153 | -164.40957 | 39017 ft | 485 kts | 92° |
| 2026-04-24 12:18 | -21.36046 | -164.33763 | 39017 ft | 485 kts | 92° |
| 2026-04-24 12:18 | -21.35935 | -164.26534 | 39013 ft | 485 kts | 92° |
| 2026-04-24 12:19 | -21.35821 | -164.19291 | 39013 ft | 485 kts | 92° |
| 2026-04-24 12:19 | -21.35704 | -164.12059 | 39014 ft | 485 kts | 92° |
| 2026-04-24 12:20 | -21.35583 | -164.04819 | 39016 ft | 485 kts | 92° |
| 2026-04-24 12:20 | -21.35460 | -163.97579 | 39012 ft | 485 kts | 92° |
| 2026-04-24 12:21 | -21.35333 | -163.90336 | 39014 ft | 486 kts | 92° |
| 2026-04-24 12:21 | -21.35203 | -163.83097 | 39019 ft | 486 kts | 92° |
| 2026-04-24 12:22 | -21.35070 | -163.75847 | 39015 ft | 486 kts | 92° |
| 2026-04-24 12:22 | -21.34934 | -163.68602 | 39016 ft | 486 kts | 92° |
| 2026-04-24 12:23 | -21.34795 | -163.61350 | 39013 ft | 486 kts | 92° |
| 2026-04-24 12:23 | -21.34653 | -163.54102 | 39014 ft | 486 kts | 92° |
| 2026-04-24 12:24 | -21.34507 | -163.46851 | 39009 ft | 486 kts | 92° |
| 2026-04-24 12:24 | -21.34359 | -163.39602 | 39014 ft | 486 kts | 92° |
| 2026-04-24 12:25 | -21.34206 | -163.32340 | 39019 ft | 486 kts | 92° |
| 2026-04-24 12:25 | -21.34052 | -163.25086 | 39011 ft | 487 kts | 92° |
| 2026-04-24 12:26 | -21.33893 | -163.17829 | 39013 ft | 487 kts | 92° |
| 2026-04-24 12:26 | -21.33732 | -163.10569 | 39010 ft | 487 kts | 92° |
| 2026-04-24 12:27 | -21.33569 | -163.03361 | 39008 ft | 487 kts | 92° |
| 2026-04-24 12:27 | -21.33402 | -162.96102 | 39011 ft | 487 kts | 92° |
| 2026-04-24 12:28 | -21.33231 | -162.88844 | 39009 ft | 487 kts | 92° |
| 2026-04-24 12:28 | -21.33057 | -162.81580 | 39005 ft | 487 kts | 92° |
| 2026-04-24 12:29 | -21.32880 | -162.74313 | 39008 ft | 487 kts | 92° |
| 2026-04-24 12:29 | -21.32700 | -162.67055 | 39008 ft | 487 kts | 92° |
| 2026-04-24 12:30 | -21.32517 | -162.59789 | 39006 ft | 487 kts | 92° |
| 2026-04-24 12:30 | -21.32331 | -162.52527 | 39005 ft | 487 kts | 92° |
| 2026-04-24 12:31 | -21.32141 | -162.45256 | 39004 ft | 487 kts | 92° |
| 2026-04-24 12:31 | -21.31948 | -162.37993 | 39003 ft | 488 kts | 92° |
| 2026-04-24 12:32 | -21.31753 | -162.30723 | 39003 ft | 488 kts | 92° |
| 2026-04-24 12:32 | -21.31554 | -162.23457 | 39001 ft | 488 kts | 92° |
| 2026-04-24 12:33 | -21.31352 | -162.16190 | 39001 ft | 488 kts | 92° |
| 2026-04-24 12:33 | -21.31146 | -162.08919 | 39000 ft | 488 kts | 92° |
| 2026-04-24 12:34 | -21.30937 | -162.01639 | 38999 ft | 488 kts | 92° |
| 2026-04-24 12:34 | -21.30726 | -161.94396 | 38797 ft | 484 kts | 92° |
| 2026-04-24 12:34 | -21.30619 | -161.90798 | 38346 ft | 482 kts | 92° |
| 2026-04-24 12:35 | -21.30513 | -161.87219 | 37832 ft | 478 kts | 92° |
| 2026-04-24 12:35 | -21.30407 | -161.83667 | 37317 ft | 474 kts | 92° |
| 2026-04-24 12:35 | -21.30302 | -161.80151 | 36799 ft | 471 kts | 91° |
| 2026-04-24 12:35 | -21.30196 | -161.76654 | 36329 ft | 467 kts | 91° |
| 2026-04-24 12:36 | -21.30091 | -161.73193 | 35845 ft | 463 kts | 91° |
| 2026-04-24 12:36 | -21.29985 | -161.69749 | 35381 ft | 460 kts | 91° |
| 2026-04-24 12:36 | -21.29881 | -161.66332 | 34919 ft | 457 kts | 91° |
| 2026-04-24 12:36 | -21.29776 | -161.62945 | 34468 ft | 453 kts | 91° |
| 2026-04-24 12:37 | -21.29672 | -161.59578 | 34022 ft | 450 kts | 90° |
| 2026-04-24 12:37 | -21.29568 | -161.56237 | 33527 ft | 447 kts | 90° |
| 2026-04-24 12:37 | -21.29463 | -161.52922 | 32963 ft | 442 kts | 90° |
| 2026-04-24 12:37 | -21.29359 | -161.49638 | 32269 ft | 439 kts | 90° |
| 2026-04-24 12:38 | -21.29256 | -161.46382 | 31605 ft | 435 kts | 90° |
| 2026-04-24 12:38 | -21.29153 | -161.43166 | 30961 ft | 431 kts | 90° |
| 2026-04-24 12:38 | -21.29051 | -161.40005 | 30348 ft | 427 kts | 89° |
| 2026-04-24 12:39 | -21.28742 | -161.30576 | 28408 ft | 412 kts | 89° |
| 2026-04-24 12:39 | -21.28641 | -161.27518 | 27786 ft | 408 kts | 89° |
| 2026-04-24 12:39 | -21.28542 | -161.24542 | 27186 ft | 403 kts | 89° |
| 2026-04-24 12:40 | -21.28442 | -161.21557 | 26587 ft | 399 kts | 89° |
| 2026-04-24 12:40 | -21.28342 | -161.18601 | 26011 ft | 394 kts | 89° |
| 2026-04-24 12:40 | -21.28244 | -161.15678 | 25442 ft | 390 kts | 89° |
| 2026-04-24 12:40 | -21.28146 | -161.12781 | 24887 ft | 386 kts | 89° |
| 2026-04-24 12:41 | -21.28049 | -161.09919 | 24340 ft | 382 kts | 89° |
| 2026-04-24 12:41 | -21.27953 | -161.07085 | 23816 ft | 378 kts | 89° |